New Mountain, Texas
Current Conditions -  °F | °C
As of 12:15 PM on Wednesday 28 Jan 2015 (Local Time) from KJXI Reporting Station
Clear Clear  
Wind Chill: 74°   Ceiling: Unl
Heat Index: 74°   Visibility: 10mi
Dew Point: 46°   Wind: 10mph
Humidity: 37%   Direction: 180°S
Pressure: 30.13"   Gusts: 18mph
Location:  32.7353°N, 94.9492°W
Report Text: KJXI 281815Z AUTO 18009G16KT 10SM CLR 23/08 A3013 RMK AO2 T02310076
Loading
Personal Weather Stations






























Interactive Weather Map New forecast layout! Learn more

10-Day Weather Forecast

Advertisements
Track Severe Weather on mobile